Historyczne dane pomiarowe

Dodano dane terminowe – wersja testowa.

Dane z okresu 1951-2019

Wersja bazy: 1.34 [2019-03-16, lista zmian], aktualizacja planowana na 2019-04-15

Dane meteo z obszaru Polski uzyskane na podstawie danych udostępnionych przez Instytut Meteorologii i Gospodarki Wodnej – Państwowy Instytut Badawczy.

 

Wybierz Datę:    

       

TemperaturaWilgotnośćWiatrCiśnienieOpadyŚniegCzas trwania zjawisk
 Stacja t tx tn tng RH VA  wxwx mslp ppp RRR   cm mm wxwxwxwxwxwxwx
1956-11-09 -1.9 2.2 -4.6 -9.3 78.5- 0.7 2.7---- 0.0------------
1956-11-08 -0.5 3.4 -2.8 -7.9 78.5- 0.7 1.0---- 0.0------------
1956-11-07 2.2 3.0 0.5 0.2 91.5- 8.0 1.3---- 0.3------------
1956-11-06 1.8 4.4 -0.1 -2.4 77.8- 5.3 4.3---- 2.8------------
1956-11-05 5.4 8.2 2.7 1.8 77.8- 5.7 5.7---- 0.8------------
1956-11-04 2.3 4.6 -4.1 -9.1 80.3- 7.3 2.3---- 1.5------------
1956-11-03 0.1 4.8 -2.7 -3.9 80.5- 4.3 1.3---- 0.0------------
1956-11-02 1.2 2.6 -0.4 -0.9 92.5- 8.0 1.7---- 0.0------------
1956-11-01 -1.3 2.9-10.3-12.8 65.5- 4.0 2.3---- 0.0------------
1956-10-31 -4.5 0.1 -6.7 -7.2 72.5- 0.7 3.7---- 0.0------------
1956-10-30 1.3 5.4 -0.5 2.9 90.5- 8.0 5.7---- 0.5------------
1956-10-29 5.4 8.7 4.8 4.7 94.0- 8.0 3.0---- 14.6------------
1956-10-28 9.0 10.0 8.1 8.1 95.3- 8.0 4.7---- 15.2------------
1956-10-27 8.6 9.8 5.8 4.9 94.8- 8.0 3.7---- 11.9------------
1956-10-26 7.2 8.7 6.2 5.5 87.8- 8.0 0.7---- 8.4------------
1956-10-25 10.6 14.7 7.6 3.3 82.3- 6.0 2.0---- 4.7------------
1956-10-24 11.5 18.3 3.7 0.1 79.5- 2.3 3.0---- 0.0------------
1956-10-23 8.3 14.7 4.1 4.4 86.3- 2.7 2.0---- 0.0------------
1956-10-22 9.4 15.8 4.3 1.8 91.0- 4.7 2.0---- 0.0------------
1956-10-21 10.2 17.2 6.9 3.2 90.8- 0.3 1.3---- 0.0------------
1956-10-20 10.2 14.6 4.8 1.0 88.3- 7.7 1.0---- 0.1------------
1956-10-19 10.7 15.7 6.6 10.4 90.8- 5.0 2.7---- 0.0------------
1956-10-18 12.1 13.7 5.8 1.6 90.8- 7.7 2.3---- 5.5------------
1956-10-17 7.2 16.2 -0.2 -4.6 79.0- 1.0 0.7---- 0.0------------
1956-10-16 5.4 13.5 -3.7 -6.7 76.5- 0.0 1.0---- 0.0------------
1956-10-15 2.6 12.2 -3.2 -5.8 82.8- 1.3 0.7---- 0.0------------
1956-10-14 9.5 13.8 6.2 8.9 75.0- 2.3 2.3---- 0.0------------
1956-10-13 11.8 13.5 7.7 4.2 70.0- 8.0 6.7---- 1.7------------
1956-10-12 8.9 14.1 5.2 0.8 85.3- 2.3 2.7---- 0.0------------
1956-10-11 6.1 13.1 -3.2 -5.8 79.0- 0.3 1.3---- 0.0------------
1956-10-10 2.7 10.4 -0.5 -4.1 81.5- 0.0 1.3---- 0.0------------
1956-10-09 7.7 9.0 2.5 -1.4 92.5- 6.7 3.3---- 1.1------------
1956-10-08 4.3 9.7 -2.9 -5.5 80.5- 4.7 1.7---- 0.0------------
1956-10-07 4.9 10.9 1.1 2.6 80.3- 3.7 4.0---- 0.0------------
1956-10-06 6.6 8.9 4.2 2.3 80.3- 7.0 2.3---- 1.0------------
1956-10-05 7.9 12.9 5.3 3.0 86.3- 4.7 1.7---- 0.4------------
1956-10-04 10.5 16.3 3.0 -0.8 87.3- 6.0 1.3---- 3.3------------
1956-10-03 12.4 17.6 6.5 7.7 88.8- 5.0 2.7---- 0.3------------
1956-10-02 16.8 24.8 8.3 4.2 81.8- 1.0 1.7---- 0.0------------
1956-10-01 15.4 24.0 7.8 4.4 84.3- 2.3 0.7---- 0.0------------
1956-09-30 11.4 19.4 7.9 3.5 86.3- 3.7 1.0---- 0.0------------
1956-09-29 12.7 17.7 9.2 13.6 89.3- 5.0 1.7---- 0.0------------
1956-09-28 16.4 19.9 10.4 5.2 74.3- 4.0 4.0---- 0.0------------
1956-09-27 15.8 22.6 11.2 5.5 80.8- 1.0 1.3---- 0.8------------
1956-09-26 14.9 22.9 8.0 1.9 65.3- 0.0 3.3---- 0.1------------
1956-09-25 14.4 22.4 3.2 -1.1 65.5- 0.0 3.3---- 0.0------------
1956-09-24 10.5 17.5 5.7 3.1 64.5- 0.0 3.7---- 0.0------------
1956-09-23 13.2 20.1 8.0 5.5 71.3- 0.0 3.7---- 0.0------------
1956-09-22 13.2 20.2 5.3 0.3 71.8- 0.0 3.0---- 0.0------------
1956-09-21 10.3 19.5 1.9 -1.2 80.8- 0.0 0.3---- 0.0------------
1956-09-20 9.0 18.1 2.0 -2.5 83.3- 1.0 0.0---- 0.0------------
1956-09-19 8.3 16.9 0.5 -1.8 83.3- 0.3 1.7---- 0.0------------
1956-09-18 7.3 15.2 1.5 -1.4 85.0- 2.7 0.7---- 0.0------------
1956-09-17 9.3 12.7 7.3 5.1 91.0- 5.3 3.0---- 6.6------------
1956-09-16 10.0 17.1 0.4 -1.7 78.3- 3.7 1.0---- 1.5------------
1956-09-15 8.7 15.9 3.3 0.2 86.3- 5.0 1.3---- 0.0------------
1956-09-14 9.9 17.1 6.0 3.9 86.3- 4.0 1.3---- 0.0------------
1956-09-13 10.7 15.0 7.3 5.2 83.3- 6.0 2.3---- 5.2------------
1956-09-12 11.4 16.2 8.1 8.0 84.0- 4.7 4.3---- 2.8------------
1956-09-11 15.4 18.3 12.4 9.4 90.3- 8.0 1.3---- 7.2------------
242.2 ms

 

Źródłem pochodzenia danych jest Instytut Meteorologii i Gospodarki Wodnej – Państwowy Instytut Badawczy. Dane Instytutu Meteorologii i Gospodarki Wodnej – Państwowego Instytutu Badawczego zostały przetworzone.

Dane źródłowe można odnaleźć na stronie https://dane.imgw.pl